Julian Carroll Airport Jackson US
ICAO: KJKL
IATA: JKL
Category: Medium
Scheduled Services: No

Elevation: 1381 ft
TransAlt. 18000 ft.

Airport Communications:
ASOS:118.375
INDIANAPOLIS CNTR:126.57
CTAF/UNICOM:122.8

KJKL Zoom In..

Runways:

(A) RW 01 length 4400 ft width 75 ft
---- / hdg 12

(B) RW 19 length 4400 ft width 75 ft
---- / hdg 192

Location; KJKL
Day. 17 / Time. 07.53 Zulu
* Altimeter: 29.98
* Temperature: 22° c. 71.6°f.
* Wind from: 210° Speed 03 kn.
Dewpoint: 21° c.
Visibility: 6 Statute Miles.
Clouds: Few 200 ft.
Conditions: Mist.

KJKL 170753Z AUTO 21003KT 6SM BR FEW002 22/21 A2998 RMK AO2 SLP136 T02170206


Wind From 210°
Speed 03 kn.

 
 
jpsmedia.com for Web Design worldairports.se 2018   terms of use